sensor_id;sensor_type;location;lat;lon;timestamp;pressure;altitude;pressure_sealevel;temperature;humidity
11952;BME280;6036;41.840;23.486;2022-11-09T00:02:10;90995.53;;;11.30;58.96
11952;BME280;6036;41.840;23.486;2022-11-09T00:04:36;90989.34;;;10.81;60.80
11952;BME280;6036;41.840;23.486;2022-11-09T00:07:01;90993.31;;;10.66;61.49
11952;BME280;6036;41.840;23.486;2022-11-09T00:09:26;90990.63;;;10.75;61.24
11952;BME280;6036;41.840;23.486;2022-11-09T00:11:53;90994.63;;;10.72;62.10
11952;BME280;6036;41.840;23.486;2022-11-09T00:14:18;90995.75;;;10.71;62.40
11952;BME280;6036;41.840;23.486;2022-11-09T00:16:44;90998.41;;;10.83;62.30
11952;BME280;6036;41.840;23.486;2022-11-09T00:19:09;90991.56;;;10.91;61.85
11952;BME280;6036;41.840;23.486;2022-11-09T00:21:34;90997.66;;;10.83;62.36
11952;BME280;6036;41.840;23.486;2022-11-09T00:24:00;90998.97;;;10.89;62.06
11952;BME280;6036;41.840;23.486;2022-11-09T00:26:25;90994.81;;;10.88;62.11
11952;BME280;6036;41.840;23.486;2022-11-09T00:28:51;90991.38;;;10.55;63.77
11952;BME280;6036;41.840;23.486;2022-11-09T00:31:20;90989.53;;;10.76;62.94
11952;BME280;6036;41.840;23.486;2022-11-09T00:33:50;90993.53;;;10.94;62.62
11952;BME280;6036;41.840;23.486;2022-11-09T00:36:17;90986.88;;;10.96;62.78
11952;BME280;6036;41.840;23.486;2022-11-09T00:38:47;90982.22;;;11.02;62.11
11952;BME280;6036;41.840;23.486;2022-11-09T00:41:13;90980.41;;;11.15;61.55
11952;BME280;6036;41.840;23.486;2022-11-09T00:43:38;90984.13;;;10.81;62.72
11952;BME280;6036;41.840;23.486;2022-11-09T00:46:05;90979.19;;;10.79;63.03
11952;BME280;6036;41.840;23.486;2022-11-09T00:48:30;90978.34;;;11.08;61.12
11952;BME280;6036;41.840;23.486;2022-11-09T00:50:56;90984.28;;;11.29;60.48
11952;BME280;6036;41.840;23.486;2022-11-09T00:53:23;90976.00;;;11.06;60.92
11952;BME280;6036;41.840;23.486;2022-11-09T00:55:57;90972.00;;;11.09;60.84
11952;BME280;6036;41.840;23.486;2022-11-09T00:58:23;90977.47;;;11.16;60.52
11952;BME280;6036;41.840;23.486;2022-11-09T01:00:50;90967.69;;;11.25;60.37
11952;BME280;6036;41.840;23.486;2022-11-09T01:03:16;90975.13;;;11.02;61.59
11952;BME280;6036;41.840;23.486;2022-11-09T01:05:41;90973.78;;;11.17;60.43
11952;BME280;6036;41.840;23.486;2022-11-09T01:08:07;90972.56;;;11.15;59.96
11952;BME280;6036;41.840;23.486;2022-11-09T01:10:32;90967.44;;;10.85;60.54
11952;BME280;6036;41.840;23.486;2022-11-09T01:12:58;90966.47;;;10.90;60.68
11952;BME280;6036;41.840;23.486;2022-11-09T01:15:24;90971.47;;;10.83;60.02
11952;BME280;6036;41.840;23.486;2022-11-09T01:17:49;90965.41;;;10.91;59.58
11952;BME280;6036;41.840;23.486;2022-11-09T01:20:15;90965.47;;;10.62;60.75
11952;BME280;6036;41.840;23.486;2022-11-09T01:22:41;90965.88;;;10.52;61.14
11952;BME280;6036;41.840;23.486;2022-11-09T01:25:07;90961.13;;;10.66;60.75
11952;BME280;6036;41.840;23.486;2022-11-09T01:27:33;90960.28;;;10.32;62.12
11952;BME280;6036;41.840;23.486;2022-11-09T01:29:59;90965.66;;;10.07;63.40
11952;BME280;6036;41.840;23.486;2022-11-09T01:32:25;90960.94;;;10.50;61.60
11952;BME280;6036;41.840;23.486;2022-11-09T01:34:50;90962.38;;;9.89;64.10
11952;BME280;6036;41.840;23.486;2022-11-09T01:37:16;90958.78;;;10.02;64.23
11952;BME280;6036;41.840;23.486;2022-11-09T01:39:41;90964.28;;;9.80;65.20
11952;BME280;6036;41.840;23.486;2022-11-09T01:42:07;90957.16;;;10.18;63.96
11952;BME280;6036;41.840;23.486;2022-11-09T01:44:34;90956.53;;;10.63;62.42
11952;BME280;6036;41.840;23.486;2022-11-09T01:47:10;90956.41;;;10.09;64.17
11952;BME280;6036;41.840;23.486;2022-11-09T01:49:39;90954.34;;;9.94;64.91
11952;BME280;6036;41.840;23.486;2022-11-09T01:52:14;90951.56;;;10.28;63.64
11952;BME280;6036;41.840;23.486;2022-11-09T01:54:45;90951.13;;;10.26;63.46
11952;BME280;6036;41.840;23.486;2022-11-09T01:57:18;90964.47;;;9.66;65.61
11952;BME280;6036;41.840;23.486;2022-11-09T01:59:49;90971.66;;;10.07;64.10
11952;BME280;6036;41.840;23.486;2022-11-09T02:02:16;90969.50;;;10.38;63.20
11952;BME280;6036;41.840;23.486;2022-11-09T02:04:48;90968.56;;;9.76;65.42
11952;BME280;6036;41.840;23.486;2022-11-09T02:07:17;90964.28;;;9.80;64.95
11952;BME280;6036;41.840;23.486;2022-11-09T02:12:25;90969.06;;;9.69;65.34
11952;BME280;6036;41.840;23.486;2022-11-09T02:14:52;90965.59;;;9.48;66.40
11952;BME280;6036;41.840;23.486;2022-11-09T02:17:19;90981.84;;;9.07;68.70
11952;BME280;6036;41.840;23.486;2022-11-09T02:19:45;90978.28;;;9.29;67.54
11952;BME280;6036;41.840;23.486;2022-11-09T02:22:10;90963.31;;;9.47;66.91
11952;BME280;6036;41.840;23.486;2022-11-09T02:24:36;90973.63;;;10.10;64.11
11952;BME280;6036;41.840;23.486;2022-11-09T02:27:04;90978.72;;;10.57;62.12
11952;BME280;6036;41.840;23.486;2022-11-09T02:29:48;90970.06;;;10.44;61.69
11952;BME280;6036;41.840;23.486;2022-11-09T02:32:23;90977.25;;;10.26;62.38
11952;BME280;6036;41.840;23.486;2022-11-09T02:34:48;90973.09;;;9.67;64.31
11952;BME280;6036;41.840;23.486;2022-11-09T02:37:48;90983.94;;;9.40;66.96
11952;BME280;6036;41.840;23.486;2022-11-09T02:40:23;90983.31;;;10.10;64.31
11952;BME280;6036;41.840;23.486;2022-11-09T02:42:51;90983.31;;;10.18;63.57
11952;BME280;6036;41.840;23.486;2022-11-09T02:45:16;90972.88;;;10.39;62.39
11952;BME280;6036;41.840;23.486;2022-11-09T02:47:42;90983.47;;;10.63;61.91
11952;BME280;6036;41.840;23.486;2022-11-09T02:50:08;90983.66;;;10.79;61.06
11952;BME280;6036;41.840;23.486;2022-11-09T02:52:34;90990.63;;;9.96;64.54
11952;BME280;6036;41.840;23.486;2022-11-09T02:54:59;90995.81;;;9.75;65.95
11952;BME280;6036;41.840;23.486;2022-11-09T02:57:25;90995.06;;;9.95;64.62
11952;BME280;6036;41.840;23.486;2022-11-09T02:59:50;90987.97;;;10.04;64.17
11952;BME280;6036;41.840;23.486;2022-11-09T03:02:15;90993.53;;;10.32;62.79
11952;BME280;6036;41.840;23.486;2022-11-09T03:04:41;90989.59;;;10.47;62.02
11952;BME280;6036;41.840;23.486;2022-11-09T03:07:07;90986.59;;;10.07;62.62
11952;BME280;6036;41.840;23.486;2022-11-09T03:09:32;90983.47;;;10.42;61.21
11952;BME280;6036;41.840;23.486;2022-11-09T03:11:58;90984.47;;;10.50;60.89
11952;BME280;6036;41.840;23.486;2022-11-09T03:14:23;90986.81;;;10.52;61.10
11952;BME280;6036;41.840;23.486;2022-11-09T03:16:49;90986.41;;;10.41;61.64
11952;BME280;6036;41.840;23.486;2022-11-09T03:19:14;90991.75;;;10.44;61.35
11952;BME280;6036;41.840;23.486;2022-11-09T03:21:40;90988.09;;;10.37;61.37
11952;BME280;6036;41.840;23.486;2022-11-09T03:24:05;90986.50;;;10.24;61.80
11952;BME280;6036;41.840;23.486;2022-11-09T03:26:31;90989.97;;;10.36;61.25
11952;BME280;6036;41.840;23.486;2022-11-09T03:28:57;90988.25;;;10.11;62.63
11952;BME280;6036;41.840;23.486;2022-11-09T03:31:22;90988.66;;;9.55;65.56
11952;BME280;6036;41.840;23.486;2022-11-09T03:33:48;90994.63;;;8.92;68.07
11952;BME280;6036;41.840;23.486;2022-11-09T03:36:13;91002.13;;;9.10;68.19
11952;BME280;6036;41.840;23.486;2022-11-09T03:38:39;91002.34;;;9.52;66.74
11952;BME280;6036;41.840;23.486;2022-11-09T03:41:04;90999.06;;;10.01;64.70
11952;BME280;6036;41.840;23.486;2022-11-09T03:43:30;90993.91;;;10.22;63.11
11952;BME280;6036;41.840;23.486;2022-11-09T03:45:56;90996.94;;;9.95;63.16
11952;BME280;6036;41.840;23.486;2022-11-09T03:48:22;91008.00;;;9.54;64.73
11952;BME280;6036;41.840;23.486;2022-11-09T03:50:47;91010.56;;;8.99;67.32
11952;BME280;6036;41.840;23.486;2022-11-09T03:53:13;91014.38;;;9.18;67.11
11952;BME280;6036;41.840;23.486;2022-11-09T03:55:39;91004.34;;;9.46;65.91
11952;BME280;6036;41.840;23.486;2022-11-09T03:58:06;91000.16;;;9.62;65.20
11952;BME280;6036;41.840;23.486;2022-11-09T04:00:32;91005.22;;;9.67;64.81
11952;BME280;6036;41.840;23.486;2022-11-09T04:02:58;91008.88;;;9.75;65.04
11952;BME280;6036;41.840;23.486;2022-11-09T04:05:24;91003.47;;;9.80;64.42
11952;BME280;6036;41.840;23.486;2022-11-09T04:07:55;91008.97;;;9.87;64.38
11952;BME280;6036;41.840;23.486;2022-11-09T04:10:22;91016.00;;;9.95;64.26
11952;BME280;6036;41.840;23.486;2022-11-09T04:12:48;91008.50;;;9.85;64.83
11952;BME280;6036;41.840;23.486;2022-11-09T04:15:14;91011.56;;;9.58;65.79
11952;BME280;6036;41.840;23.486;2022-11-09T04:17:40;91007.50;;;9.60;65.86
11952;BME280;6036;41.840;23.486;2022-11-09T04:20:07;91008.06;;;9.83;64.91
11952;BME280;6036;41.840;23.486;2022-11-09T04:22:33;91003.31;;;9.76;65.11
11952;BME280;6036;41.840;23.486;2022-11-09T04:24:58;91007.25;;;9.91;64.05
11952;BME280;6036;41.840;23.486;2022-11-09T04:27:24;91007.50;;;10.07;63.66
11952;BME280;6036;41.840;23.486;2022-11-09T04:29:49;91009.63;;;10.42;61.58
11952;BME280;6036;41.840;23.486;2022-11-09T04:32:15;91010.53;;;9.79;63.49
11952;BME280;6036;41.840;23.486;2022-11-09T04:34:40;91008.50;;;9.85;63.90
11952;BME280;6036;41.840;23.486;2022-11-09T04:37:07;91013.44;;;9.87;63.26
11952;BME280;6036;41.840;23.486;2022-11-09T04:39:32;91012.22;;;9.84;63.10
11952;BME280;6036;41.840;23.486;2022-11-09T04:41:57;91010.00;;;9.57;64.06
11952;BME280;6036;41.840;23.486;2022-11-09T04:44:23;91011.06;;;9.56;64.25
11952;BME280;6036;41.840;23.486;2022-11-09T04:46:48;91015.75;;;9.25;65.62
11952;BME280;6036;41.840;23.486;2022-11-09T04:49:14;91011.88;;;9.86;63.64
11952;BME280;6036;41.840;23.486;2022-11-09T04:51:39;91019.75;;;10.23;62.21
11952;BME280;6036;41.840;23.486;2022-11-09T04:54:05;91024.47;;;9.92;63.14
11952;BME280;6036;41.840;23.486;2022-11-09T04:56:30;91014.06;;;9.83;63.96
11952;BME280;6036;41.840;23.486;2022-11-09T04:58:55;91023.75;;;9.11;66.79
11952;BME280;6036;41.840;23.486;2022-11-09T05:01:21;91021.28;;;9.32;65.93
11952;BME280;6036;41.840;23.486;2022-11-09T05:03:47;91024.63;;;9.41;65.22
11952;BME280;6036;41.840;23.486;2022-11-09T05:06:13;91026.97;;;9.16;66.34
11952;BME280;6036;41.840;23.486;2022-11-09T05:08:58;91021.91;;;9.20;66.53
11952;BME280;6036;41.840;23.486;2022-11-09T05:11:24;91021.00;;;9.79;64.43
11952;BME280;6036;41.840;23.486;2022-11-09T05:13:50;91016.75;;;9.96;63.93
11952;BME280;6036;41.840;23.486;2022-11-09T05:16:18;91021.78;;;9.80;64.24
11952;BME280;6036;41.840;23.486;2022-11-09T05:18:44;91021.97;;;10.04;63.49
11952;BME280;6036;41.840;23.486;2022-11-09T05:21:10;91023.03;;;10.03;63.99
11952;BME280;6036;41.840;23.486;2022-11-09T05:23:35;91019.56;;;10.28;62.84
11952;BME280;6036;41.840;23.486;2022-11-09T05:26:20;91025.22;;;10.60;62.23
11952;BME280;6036;41.840;23.486;2022-11-09T05:28:45;91023.50;;;10.34;63.52
11952;BME280;6036;41.840;23.486;2022-11-09T05:31:10;91019.34;;;10.83;61.79
11952;BME280;6036;41.840;23.486;2022-11-09T05:33:36;91029.06;;;10.83;62.13
11952;BME280;6036;41.840;23.486;2022-11-09T05:36:01;91027.94;;;11.04;61.29
11952;BME280;6036;41.840;23.486;2022-11-09T05:38:27;91029.63;;;10.88;61.05
11952;BME280;6036;41.840;23.486;2022-11-09T05:40:53;91034.09;;;10.88;61.34
11952;BME280;6036;41.840;23.486;2022-11-09T05:43:19;91033.97;;;10.34;62.53
11952;BME280;6036;41.840;23.486;2022-11-09T05:45:45;91041.28;;;10.50;62.40
11952;BME280;6036;41.840;23.486;2022-11-09T05:48:12;91041.03;;;10.84;60.93
11952;BME280;6036;41.840;23.486;2022-11-09T05:50:38;91046.56;;;10.41;62.53
11952;BME280;6036;41.840;23.486;2022-11-09T05:53:05;91036.91;;;10.83;61.17
11952;BME280;6036;41.840;23.486;2022-11-09T05:55:31;91048.56;;;11.06;61.40
11952;BME280;6036;41.840;23.486;2022-11-09T05:57:57;91047.25;;;11.21;60.76
11952;BME280;6036;41.840;23.486;2022-11-09T06:00:22;91048.25;;;10.87;60.76
11952;BME280;6036;41.840;23.486;2022-11-09T06:02:48;91054.91;;;10.84;62.09
11952;BME280;6036;41.840;23.486;2022-11-09T06:05:13;91056.59;;;11.42;59.76
11952;BME280;6036;41.840;23.486;2022-11-09T06:07:40;91063.50;;;11.26;60.35
11952;BME280;6036;41.840;23.486;2022-11-09T06:10:07;91064.72;;;11.49;60.34
11952;BME280;6036;41.840;23.486;2022-11-09T06:12:32;91071.25;;;11.02;62.26
11952;BME280;6036;41.840;23.486;2022-11-09T06:14:58;91065.38;;;11.05;61.96
11952;BME280;6036;41.840;23.486;2022-11-09T06:17:24;91068.66;;;11.23;61.61
11952;BME280;6036;41.840;23.486;2022-11-09T06:19:49;91061.13;;;11.87;59.92
11952;BME280;6036;41.840;23.486;2022-11-09T06:22:15;91065.25;;;11.75;59.38
11952;BME280;6036;41.840;23.486;2022-11-09T06:24:40;91070.00;;;12.06;58.20
11952;BME280;6036;41.840;23.486;2022-11-09T06:27:06;91070.38;;;12.29;56.98
11952;BME280;6036;41.840;23.486;2022-11-09T06:29:31;91069.03;;;12.47;57.04
11952;BME280;6036;41.840;23.486;2022-11-09T06:31:56;91073.16;;;12.96;56.18
11952;BME280;6036;41.840;23.486;2022-11-09T06:34:22;91070.75;;;13.16;55.37
11952;BME280;6036;41.840;23.486;2022-11-09T06:36:47;91075.56;;;13.01;56.37
11952;BME280;6036;41.840;23.486;2022-11-09T06:39:13;91079.94;;;13.10;55.38
11952;BME280;6036;41.840;23.486;2022-11-09T06:41:38;91072.31;;;12.80;57.24
11952;BME280;6036;41.840;23.486;2022-11-09T06:44:04;91074.13;;;13.16;56.33
11952;BME280;6036;41.840;23.486;2022-11-09T06:46:30;91079.03;;;13.30;55.71
11952;BME280;6036;41.840;23.486;2022-11-09T06:48:56;91082.56;;;13.10;55.95
11952;BME280;6036;41.840;23.486;2022-11-09T06:51:22;91077.72;;;13.24;56.09
11952;BME280;6036;41.840;23.486;2022-11-09T06:53:47;91077.25;;;13.34;55.96
11952;BME280;6036;41.840;23.486;2022-11-09T06:56:13;91082.16;;;13.08;57.01
11952;BME280;6036;41.840;23.486;2022-11-09T06:58:38;91082.75;;;13.29;56.68
11952;BME280;6036;41.840;23.486;2022-11-09T07:01:08;91074.78;;;13.25;57.15
11952;BME280;6036;41.840;23.486;2022-11-09T07:03:34;91074.16;;;13.44;56.93
11952;BME280;6036;41.840;23.486;2022-11-09T07:06:04;91077.00;;;13.94;55.62
11952;BME280;6036;41.840;23.486;2022-11-09T07:08:30;91077.34;;;14.08;54.83
11952;BME280;6036;41.840;23.486;2022-11-09T07:11:05;91073.13;;;14.19;54.47
11952;BME280;6036;41.840;23.486;2022-11-09T07:13:30;91076.59;;;14.08;54.89
11952;BME280;6036;41.840;23.486;2022-11-09T07:15:56;91077.25;;;14.48;54.16
11952;BME280;6036;41.840;23.486;2022-11-09T07:18:21;91084.09;;;14.37;54.15
11952;BME280;6036;41.840;23.486;2022-11-09T07:20:47;91068.41;;;14.56;54.77
11952;BME280;6036;41.840;23.486;2022-11-09T07:23:12;91075.06;;;15.01;53.25
11952;BME280;6036;41.840;23.486;2022-11-09T07:25:37;91070.31;;;15.44;51.84
11952;BME280;6036;41.840;23.486;2022-11-09T07:28:04;91070.97;;;15.76;51.45
11952;BME280;6036;41.840;23.486;2022-11-09T07:30:31;91071.84;;;16.94;48.35
11952;BME280;6036;41.840;23.486;2022-11-09T07:32:57;91067.16;;;19.30;43.41
11952;BME280;6036;41.840;23.486;2022-11-09T07:35:24;91068.72;;;21.80;38.13
11952;BME280;6036;41.840;23.486;2022-11-09T07:37:51;91072.22;;;23.56;33.74
11952;BME280;6036;41.840;23.486;2022-11-09T07:40:16;91073.63;;;25.18;31.09
11952;BME280;6036;41.840;23.486;2022-11-09T07:42:42;91079.91;;;26.21;28.89
11952;BME280;6036;41.840;23.486;2022-11-09T07:45:07;91080.59;;;27.32;26.91
11952;BME280;6036;41.840;23.486;2022-11-09T07:47:33;91078.47;;;26.72;27.88
11952;BME280;6036;41.840;23.486;2022-11-09T07:49:58;91087.94;;;26.40;28.08
11952;BME280;6036;41.840;23.486;2022-11-09T07:52:24;91077.91;;;25.62;30.03
11952;BME280;6036;41.840;23.486;2022-11-09T07:54:49;91089.47;;;26.02;29.17
11952;BME280;6036;41.840;23.486;2022-11-09T07:57:14;91085.28;;;26.96;27.72
11952;BME280;6036;41.840;23.486;2022-11-09T07:59:40;91083.91;;;28.01;26.46
11952;BME280;6036;41.840;23.486;2022-11-09T08:02:07;91088.72;;;27.29;27.43
11952;BME280;6036;41.840;23.486;2022-11-09T08:04:32;91089.88;;;28.78;25.25
11952;BME280;6036;41.840;23.486;2022-11-09T08:06:57;91088.03;;;27.89;25.54
11952;BME280;6036;41.840;23.486;2022-11-09T08:09:23;91089.53;;;29.64;24.24
11952;BME280;6036;41.840;23.486;2022-11-09T08:11:48;91102.97;;;31.41;22.34
11952;BME280;6036;41.840;23.486;2022-11-09T08:14:14;91095.53;;;32.58;20.70
11952;BME280;6036;41.840;23.486;2022-11-09T08:16:39;91090.97;;;33.75;18.68
11952;BME280;6036;41.840;23.486;2022-11-09T08:19:04;91097.13;;;34.70;18.05
11952;BME280;6036;41.840;23.486;2022-11-09T08:21:34;91090.91;;;35.08;18.02
11952;BME280;6036;41.840;23.486;2022-11-09T08:23:59;91097.34;;;35.40;17.40
11952;BME280;6036;41.840;23.486;2022-11-09T08:26:25;91099.31;;;35.88;16.52
11952;BME280;6036;41.840;23.486;2022-11-09T08:28:50;91094.63;;;36.44;15.91
11952;BME280;6036;41.840;23.486;2022-11-09T08:31:16;91094.69;;;37.47;15.09
11952;BME280;6036;41.840;23.486;2022-11-09T08:33:41;91092.03;;;37.89;14.38
11952;BME280;6036;41.840;23.486;2022-11-09T08:36:11;91094.94;;;37.80;14.34
11952;BME280;6036;41.840;23.486;2022-11-09T08:38:37;91091.06;;;37.92;14.53
11952;BME280;6036;41.840;23.486;2022-11-09T08:41:03;91100.75;;;37.31;15.61
11952;BME280;6036;41.840;23.486;2022-11-09T08:43:28;91098.31;;;38.49;14.18
11952;BME280;6036;41.840;23.486;2022-11-09T08:45:54;91096.81;;;39.40;13.13
11952;BME280;6036;41.840;23.486;2022-11-09T08:48:19;91099.78;;;39.20;13.40
11952;BME280;6036;41.840;23.486;2022-11-09T08:50:45;91091.75;;;38.99;13.36
11952;BME280;6036;41.840;23.486;2022-11-09T08:53:15;91095.56;;;39.46;13.43
11952;BME280;6036;41.840;23.486;2022-11-09T08:55:40;91094.53;;;40.21;12.78
11952;BME280;6036;41.840;23.486;2022-11-09T08:58:06;91091.56;;;40.82;12.74
11952;BME280;6036;41.840;23.486;2022-11-09T09:00:31;91094.84;;;41.22;12.52
11952;BME280;6036;41.840;23.486;2022-11-09T09:02:57;91096.09;;;41.91;11.44
11952;BME280;6036;41.840;23.486;2022-11-09T09:05:23;91085.72;;;41.43;12.30
11952;BME280;6036;41.840;23.486;2022-11-09T09:07:49;91092.56;;;41.96;11.62
11952;BME280;6036;41.840;23.486;2022-11-09T09:10:14;91085.97;;;42.05;11.24
11952;BME280;6036;41.840;23.486;2022-11-09T09:12:40;91091.16;;;42.81;11.34
11952;BME280;6036;41.840;23.486;2022-11-09T09:15:05;91086.63;;;42.41;11.78
11952;BME280;6036;41.840;23.486;2022-11-09T09:17:32;91088.00;;;43.65;10.54
11952;BME280;6036;41.840;23.486;2022-11-09T09:19:59;91084.06;;;43.92;10.29
11952;BME280;6036;41.840;23.486;2022-11-09T09:22:25;91069.59;;;43.73;10.68
11952;BME280;6036;41.840;23.486;2022-11-09T09:24:50;91075.47;;;43.95;10.46
11952;BME280;6036;41.840;23.486;2022-11-09T09:27:16;91065.72;;;44.08;9.94
11952;BME280;6036;41.840;23.486;2022-11-09T09:29:41;91069.16;;;44.27;9.77
11952;BME280;6036;41.840;23.486;2022-11-09T09:32:07;91069.47;;;44.23;9.93
11952;BME280;6036;41.840;23.486;2022-11-09T09:34:32;91057.91;;;44.38;9.64
11952;BME280;6036;41.840;23.486;2022-11-09T09:36:57;91065.44;;;44.24;9.54
11952;BME280;6036;41.840;23.486;2022-11-09T09:39:23;91057.22;;;43.92;10.17
11952;BME280;6036;41.840;23.486;2022-11-09T09:41:59;91058.72;;;46.07;8.16
11952;BME280;6036;41.840;23.486;2022-11-09T09:44:32;91049.41;;;45.97;8.77
11952;BME280;6036;41.840;23.486;2022-11-09T09:47:11;91047.63;;;44.51;9.49
11952;BME280;6036;41.840;23.486;2022-11-09T09:49:53;91035.94;;;38.64;13.39
11952;BME280;6036;41.840;23.486;2022-11-09T09:55:59;91023.81;;;31.68;19.86
11952;BME280;6036;41.840;23.486;2022-11-09T09:58:21;91017.97;;;30.07;21.92
11952;BME280;6036;41.840;23.486;2022-11-09T10:00:51;91012.38;;;28.95;22.50
11952;BME280;6036;41.840;23.486;2022-11-09T10:03:19;91006.69;;;27.98;24.49
11952;BME280;6036;41.840;23.486;2022-11-09T10:05:55;91014.78;;;26.56;26.40
11952;BME280;6036;41.840;23.486;2022-11-09T10:08:42;91007.47;;;25.81;27.34
11952;BME280;6036;41.840;23.486;2022-11-09T10:24:53;90991.31;;;23.14;31.26
11952;BME280;6036;41.840;23.486;2022-11-09T10:27:35;90993.91;;;22.26;32.93
11952;BME280;6036;41.840;23.486;2022-11-09T10:30:17;90989.53;;;21.80;34.48
11952;BME280;6036;41.840;23.486;2022-11-09T10:32:45;90983.44;;;21.90;34.09
11952;BME280;6036;41.840;23.486;2022-11-09T10:37:56;90975.66;;;21.30;35.71
11952;BME280;6036;41.840;23.486;2022-11-09T10:40:32;90969.13;;;21.49;34.86
11952;BME280;6036;41.840;23.486;2022-11-09T10:43:01;90961.69;;;20.59;37.39
11952;BME280;6036;41.840;23.486;2022-11-09T10:45:35;90964.72;;;20.75;36.51
11952;BME280;6036;41.840;23.486;2022-11-09T10:48:03;90960.16;;;20.37;38.29
11952;BME280;6036;41.840;23.486;2022-11-09T10:50:33;90952.13;;;19.91;38.43
11952;BME280;6036;41.840;23.486;2022-11-09T10:58:23;90948.34;;;19.96;38.33
11952;BME280;6036;41.840;23.486;2022-11-09T11:01:12;90944.84;;;19.57;39.57
11952;BME280;6036;41.840;23.486;2022-11-09T11:03:39;90945.25;;;19.69;39.49
11952;BME280;6036;41.840;23.486;2022-11-09T11:08:40;90940.50;;;18.04;42.56
11952;BME280;6036;41.840;23.486;2022-11-09T11:13:47;90937.59;;;18.74;42.15
11952;BME280;6036;41.840;23.486;2022-11-09T11:16:28;90932.81;;;19.01;41.64
11952;BME280;6036;41.840;23.486;2022-11-09T11:18:56;90936.25;;;19.05;41.97
11952;BME280;6036;41.840;23.486;2022-11-09T11:21:23;90925.38;;;19.31;40.93
11952;BME280;6036;41.840;23.486;2022-11-09T11:24:14;90927.34;;;19.45;40.17
11952;BME280;6036;41.840;23.486;2022-11-09T11:27:01;90920.53;;;19.48;39.97
11952;BME280;6036;41.840;23.486;2022-11-09T11:29:49;90921.97;;;19.34;41.12
11952;BME280;6036;41.840;23.486;2022-11-09T11:32:18;90922.66;;;19.21;40.67
11952;BME280;6036;41.840;23.486;2022-11-09T11:34:45;90917.41;;;19.31;41.27
11952;BME280;6036;41.840;23.486;2022-11-09T11:42:55;90913.63;;;19.32;40.21
11952;BME280;6036;41.840;23.486;2022-11-09T11:45:34;90913.97;;;19.24;40.95
11952;BME280;6036;41.840;23.486;2022-11-09T11:51:17;90899.53;;;19.14;40.80
11952;BME280;6036;41.840;23.486;2022-11-09T11:56:35;90900.34;;;18.50;43.04
11952;BME280;6036;41.840;23.486;2022-11-09T12:07:57;90888.66;;;19.37;40.64
11952;BME280;6036;41.840;23.486;2022-11-09T12:10:56;90893.56;;;19.35;40.76
11952;BME280;6036;41.840;23.486;2022-11-09T12:13:44;90889.63;;;19.04;40.56
11952;BME280;6036;41.840;23.486;2022-11-09T12:16:34;90893.03;;;19.01;40.92
11952;BME280;6036;41.840;23.486;2022-11-09T12:19:16;90894.22;;;19.11;40.84
11952;BME280;6036;41.840;23.486;2022-11-09T12:24:35;90891.84;;;18.92;41.73
11952;BME280;6036;41.840;23.486;2022-11-09T12:27:08;90887.41;;;19.17;41.03
11952;BME280;6036;41.840;23.486;2022-11-09T12:32:53;90883.91;;;18.92;42.45
11952;BME280;6036;41.840;23.486;2022-11-09T12:35:37;90883.88;;;18.81;42.25
11952;BME280;6036;41.840;23.486;2022-11-09T12:41:07;90883.22;;;19.12;42.30
11952;BME280;6036;41.840;23.486;2022-11-09T12:43:57;90882.09;;;19.10;43.06
11952;BME280;6036;41.840;23.486;2022-11-09T12:46:34;90879.31;;;18.78;44.35
11952;BME280;6036;41.840;23.486;2022-11-09T12:49:03;90877.22;;;18.47;45.36
11952;BME280;6036;41.840;23.486;2022-11-09T12:51:30;90877.09;;;18.94;44.08
11952;BME280;6036;41.840;23.486;2022-11-09T12:53:56;90877.34;;;18.71;44.78
11952;BME280;6036;41.840;23.486;2022-11-09T12:56:29;90878.63;;;18.95;44.45
11952;BME280;6036;41.840;23.486;2022-11-09T12:59:19;90878.50;;;18.74;44.88
11952;BME280;6036;41.840;23.486;2022-11-09T13:01:50;90875.50;;;18.79;44.14
11952;BME280;6036;41.840;23.486;2022-11-09T13:04:19;90874.38;;;18.80;44.44
11952;BME280;6036;41.840;23.486;2022-11-09T13:09:32;90875.41;;;18.58;45.70
11952;BME280;6036;41.840;23.486;2022-11-09T13:11:58;90869.44;;;18.75;44.85
11952;BME280;6036;41.840;23.486;2022-11-09T13:17:00;90878.81;;;18.58;44.14
11952;BME280;6036;41.840;23.486;2022-11-09T13:25:32;90877.47;;;18.28;44.32
11952;BME280;6036;41.840;23.486;2022-11-09T13:27:50;90882.44;;;18.40;43.35
11952;BME280;6036;41.840;23.486;2022-11-09T13:38:21;90891.75;;;18.16;43.71
11952;BME280;6036;41.840;23.486;2022-11-09T13:40:51;90884.28;;;18.32;42.81
11952;BME280;6036;41.840;23.486;2022-11-09T13:43:31;90878.53;;;18.16;43.05
11952;BME280;6036;41.840;23.486;2022-11-09T13:45:57;90892.81;;;18.04;43.17
11952;BME280;6036;41.840;23.486;2022-11-09T13:48:44;90895.09;;;18.06;42.70
11952;BME280;6036;41.840;23.486;2022-11-09T13:51:11;90891.13;;;17.82;42.68
11952;BME280;6036;41.840;23.486;2022-11-09T13:58:48;90893.88;;;17.96;43.47
11952;BME280;6036;41.840;23.486;2022-11-09T14:02:11;90889.53;;;17.74;44.29
11952;BME280;6036;41.840;23.486;2022-11-09T14:10:02;90895.59;;;17.38;45.83
11952;BME280;6036;41.840;23.486;2022-11-09T14:23:43;90895.25;;;16.50;47.32
11952;BME280;6036;41.840;23.486;2022-11-09T14:26:16;90889.19;;;16.20;48.33
11952;BME280;6036;41.840;23.486;2022-11-09T14:28:42;90891.81;;;15.94;48.70
11952;BME280;6036;41.840;23.486;2022-11-09T14:31:27;90885.19;;;15.81;48.90
11952;BME280;6036;41.840;23.486;2022-11-09T14:33:58;90891.81;;;15.71;48.77
11952;BME280;6036;41.840;23.486;2022-11-09T14:36:25;90893.41;;;15.76;48.21
11952;BME280;6036;41.840;23.486;2022-11-09T14:38:51;90892.88;;;15.67;48.97
11952;BME280;6036;41.840;23.486;2022-11-09T14:41:24;90888.66;;;15.62;49.15
11952;BME280;6036;41.840;23.486;2022-11-09T14:43:52;90896.22;;;15.63;49.12
11952;BME280;6036;41.840;23.486;2022-11-09T14:46:21;90894.72;;;15.63;48.82
11952;BME280;6036;41.840;23.486;2022-11-09T14:48:55;90892.41;;;15.61;48.81
11952;BME280;6036;41.840;23.486;2022-11-09T14:51:35;90894.81;;;15.70;48.57
11952;BME280;6036;41.840;23.486;2022-11-09T14:54:05;90891.06;;;15.71;48.04